sensor_id;sensor_type;location;lat;lon;timestamp;P1;durP1;ratioP1;P2;durP2;ratioP2
20908;SDS011;10614;53.198;6.570;2024-03-23T00:54:11;44.10;;;8.60;;
20908;SDS011;10614;53.198;6.570;2024-03-23T00:56:15;42.40;;;8.70;;
20908;SDS011;10614;53.198;6.570;2024-03-23T00:58:19;45.80;;;9.13;;
20908;SDS011;10614;53.198;6.570;2024-03-23T01:00:20;40.65;;;9.32;;
20908;SDS011;10614;53.198;6.570;2024-03-23T01:02:22;47.22;;;9.35;;
20908;SDS011;10614;53.198;6.570;2024-03-23T01:04:23;32.08;;;7.70;;
20908;SDS011;10614;53.198;6.570;2024-03-23T01:06:26;48.88;;;8.32;;
20908;SDS011;10614;53.198;6.570;2024-03-23T01:08:27;41.63;;;9.38;;
20908;SDS011;10614;53.198;6.570;2024-03-23T01:10:30;41.17;;;9.20;;
20908;SDS011;10614;53.198;6.570;2024-03-23T01:12:31;50.58;;;9.40;;
20908;SDS011;10614;53.198;6.570;2024-03-23T01:14:33;37.65;;;8.55;;
20908;SDS011;10614;53.198;6.570;2024-03-23T01:16:36;41.22;;;8.80;;
20908;SDS011;10614;53.198;6.570;2024-03-23T01:18:38;45.63;;;8.77;;
20908;SDS011;10614;53.198;6.570;2024-03-23T01:20:39;41.95;;;9.30;;
20908;SDS011;10614;53.198;6.570;2024-03-23T01:22:41;45.80;;;8.80;;
20908;SDS011;10614;53.198;6.570;2024-03-23T01:24:45;40.13;;;9.30;;
20908;SDS011;10614;53.198;6.570;2024-03-23T01:26:48;42.85;;;8.80;;
20908;SDS011;10614;53.198;6.570;2024-03-23T01:28:49;42.00;;;9.27;;
20908;SDS011;10614;53.198;6.570;2024-03-23T01:30:50;48.10;;;9.25;;
20908;SDS011;10614;53.198;6.570;2024-03-23T01:32:51;43.67;;;9.27;;
20908;SDS011;10614;53.198;6.570;2024-03-23T01:34:53;45.42;;;9.10;;
20908;SDS011;10614;53.198;6.570;2024-03-23T01:36:54;41.42;;;10.48;;
20908;SDS011;10614;53.198;6.570;2024-03-23T01:39:04;47.90;;;9.70;;
20908;SDS011;10614;53.198;6.570;2024-03-23T01:41:09;40.78;;;8.27;;
20908;SDS011;10614;53.198;6.570;2024-03-23T01:43:16;52.97;;;9.63;;
20908;SDS011;10614;53.198;6.570;2024-03-23T01:45:17;43.35;;;8.68;;
20908;SDS011;10614;53.198;6.570;2024-03-23T01:47:23;49.30;;;8.55;;
20908;SDS011;10614;53.198;6.570;2024-03-23T01:49:24;44.17;;;10.10;;
20908;SDS011;10614;53.198;6.570;2024-03-23T01:51:26;41.17;;;9.10;;
20908;SDS011;10614;53.198;6.570;2024-03-23T01:53:28;47.58;;;9.88;;
20908;SDS011;10614;53.198;6.570;2024-03-23T01:55:33;41.63;;;8.77;;
20908;SDS011;10614;53.198;6.570;2024-03-23T01:57:36;38.15;;;9.27;;
20908;SDS011;10614;53.198;6.570;2024-03-23T01:59:40;37.78;;;8.18;;
20908;SDS011;10614;53.198;6.570;2024-03-23T02:01:41;39.70;;;8.60;;
20908;SDS011;10614;53.198;6.570;2024-03-23T02:03:43;35.42;;;8.55;;
20908;SDS011;10614;53.198;6.570;2024-03-23T02:05:44;41.33;;;9.38;;
20908;SDS011;10614;53.198;6.570;2024-03-23T02:07:49;41.40;;;10.27;;
20908;SDS011;10614;53.198;6.570;2024-03-23T02:09:51;38.00;;;9.07;;
20908;SDS011;10614;53.198;6.570;2024-03-23T02:11:54;46.35;;;8.75;;
20908;SDS011;10614;53.198;6.570;2024-03-23T02:13:55;42.38;;;8.73;;
20908;SDS011;10614;53.198;6.570;2024-03-23T02:15:59;39.13;;;8.25;;
20908;SDS011;10614;53.198;6.570;2024-03-23T02:18:02;32.53;;;8.00;;
20908;SDS011;10614;53.198;6.570;2024-03-23T02:20:04;30.30;;;8.35;;
20908;SDS011;10614;53.198;6.570;2024-03-23T02:22:06;36.30;;;8.18;;
20908;SDS011;10614;53.198;6.570;2024-03-23T02:24:12;34.88;;;7.90;;
20908;SDS011;10614;53.198;6.570;2024-03-23T02:26:12;45.97;;;9.60;;
20908;SDS011;10614;53.198;6.570;2024-03-23T02:28:15;34.40;;;7.63;;
20908;SDS011;10614;53.198;6.570;2024-03-23T02:30:17;41.10;;;8.75;;
20908;SDS011;10614;53.198;6.570;2024-03-23T02:32:19;41.35;;;7.82;;
20908;SDS011;10614;53.198;6.570;2024-03-23T02:34:20;34.15;;;7.93;;
20908;SDS011;10614;53.198;6.570;2024-03-23T02:36:22;35.45;;;7.95;;
20908;SDS011;10614;53.198;6.570;2024-03-23T02:38:22;37.45;;;7.85;;
20908;SDS011;10614;53.198;6.570;2024-03-23T02:40:27;39.00;;;8.32;;
20908;SDS011;10614;53.198;6.570;2024-03-23T02:42:28;32.90;;;7.38;;
20908;SDS011;10614;53.198;6.570;2024-03-23T02:44:29;35.30;;;8.85;;
20908;SDS011;10614;53.198;6.570;2024-03-23T02:46:31;33.10;;;8.07;;
20908;SDS011;10614;53.198;6.570;2024-03-23T02:48:32;33.47;;;7.65;;
20908;SDS011;10614;53.198;6.570;2024-03-23T02:50:34;30.90;;;8.68;;
20908;SDS011;10614;53.198;6.570;2024-03-23T02:52:35;48.22;;;8.43;;
20908;SDS011;10614;53.198;6.570;2024-03-23T02:54:38;33.53;;;7.32;;
20908;SDS011;10614;53.198;6.570;2024-03-23T02:56:41;35.50;;;8.77;;
20908;SDS011;10614;53.198;6.570;2024-03-23T02:58:43;35.35;;;8.15;;
20908;SDS011;10614;53.198;6.570;2024-03-23T03:00:45;42.42;;;8.02;;
20908;SDS011;10614;53.198;6.570;2024-03-23T03:02:46;36.88;;;7.07;;
20908;SDS011;10614;53.198;6.570;2024-03-23T03:04:48;34.47;;;7.25;;
20908;SDS011;10614;53.198;6.570;2024-03-23T03:06:48;35.65;;;7.65;;
20908;SDS011;10614;53.198;6.570;2024-03-23T03:08:50;30.35;;;7.20;;
20908;SDS011;10614;53.198;6.570;2024-03-23T03:10:51;30.17;;;6.50;;
20908;SDS011;10614;53.198;6.570;2024-03-23T03:12:54;36.42;;;7.05;;
20908;SDS011;10614;53.198;6.570;2024-03-23T03:14:58;30.10;;;6.75;;
20908;SDS011;10614;53.198;6.570;2024-03-23T03:19:01;37.15;;;7.35;;
20908;SDS011;10614;53.198;6.570;2024-03-23T03:21:03;31.27;;;8.32;;
20908;SDS011;10614;53.198;6.570;2024-03-23T03:23:05;35.85;;;7.38;;
20908;SDS011;10614;53.198;6.570;2024-03-23T03:25:07;35.70;;;6.55;;
20908;SDS011;10614;53.198;6.570;2024-03-23T03:27:10;28.85;;;6.80;;
20908;SDS011;10614;53.198;6.570;2024-03-23T03:29:13;33.80;;;6.97;;
20908;SDS011;10614;53.198;6.570;2024-03-23T03:31:17;40.28;;;7.63;;
20908;SDS011;10614;53.198;6.570;2024-03-23T03:33:20;33.45;;;7.20;;
20908;SDS011;10614;53.198;6.570;2024-03-23T03:35:21;26.60;;;6.93;;
20908;SDS011;10614;53.198;6.570;2024-03-23T03:37:22;25.83;;;7.35;;
20908;SDS011;10614;53.198;6.570;2024-03-23T03:39:24;31.98;;;7.55;;
20908;SDS011;10614;53.198;6.570;2024-03-23T03:41:27;29.60;;;6.97;;
20908;SDS011;10614;53.198;6.570;2024-03-23T03:43:27;30.58;;;7.20;;
20908;SDS011;10614;53.198;6.570;2024-03-23T03:45:31;26.75;;;6.70;;
20908;SDS011;10614;53.198;6.570;2024-03-23T03:47:32;31.75;;;6.75;;
20908;SDS011;10614;53.198;6.570;2024-03-23T03:49:34;23.90;;;6.20;;
20908;SDS011;10614;53.198;6.570;2024-03-23T03:51:35;30.13;;;7.35;;
20908;SDS011;10614;53.198;6.570;2024-03-23T03:53:37;31.45;;;7.03;;
20908;SDS011;10614;53.198;6.570;2024-03-23T03:55:38;25.30;;;6.45;;
20908;SDS011;10614;53.198;6.570;2024-03-23T03:57:40;31.48;;;6.70;;
20908;SDS011;10614;53.198;6.570;2024-03-23T03:59:41;37.33;;;7.13;;
20908;SDS011;10614;53.198;6.570;2024-03-23T04:01:44;33.47;;;7.20;;
20908;SDS011;10614;53.198;6.570;2024-03-23T04:03:45;29.80;;;7.15;;
20908;SDS011;10614;53.198;6.570;2024-03-23T04:05:49;35.78;;;7.15;;
20908;SDS011;10614;53.198;6.570;2024-03-23T04:07:51;31.90;;;6.82;;
20908;SDS011;10614;53.198;6.570;2024-03-23T04:09:53;23.92;;;5.97;;
20908;SDS011;10614;53.198;6.570;2024-03-23T04:11:54;36.97;;;6.68;;
20908;SDS011;10614;53.198;6.570;2024-03-23T04:13:56;28.08;;;6.32;;
20908;SDS011;10614;53.198;6.570;2024-03-23T04:15:57;40.85;;;8.10;;
20908;SDS011;10614;53.198;6.570;2024-03-23T04:18:01;24.83;;;6.07;;
20908;SDS011;10614;53.198;6.570;2024-03-23T04:20:02;37.88;;;7.35;;
20908;SDS011;10614;53.198;6.570;2024-03-23T04:22:08;31.20;;;6.97;;
20908;SDS011;10614;53.198;6.570;2024-03-23T04:24:09;30.38;;;6.45;;
20908;SDS011;10614;53.198;6.570;2024-03-23T04:26:11;26.65;;;6.90;;
20908;SDS011;10614;53.198;6.570;2024-03-23T04:28:12;28.30;;;6.10;;
20908;SDS011;10614;53.198;6.570;2024-03-23T04:30:14;29.25;;;5.60;;
20908;SDS011;10614;53.198;6.570;2024-03-23T04:32:16;28.08;;;6.38;;
20908;SDS011;10614;53.198;6.570;2024-03-23T04:34:20;21.02;;;5.95;;
20908;SDS011;10614;53.198;6.570;2024-03-23T04:36:21;31.88;;;6.43;;
20908;SDS011;10614;53.198;6.570;2024-03-23T04:38:22;32.10;;;6.40;;
20908;SDS011;10614;53.198;6.570;2024-03-23T04:40:24;26.88;;;6.15;;
20908;SDS011;10614;53.198;6.570;2024-03-23T04:42:26;31.00;;;6.90;;
20908;SDS011;10614;53.198;6.570;2024-03-23T04:44:27;34.53;;;6.22;;
20908;SDS011;10614;53.198;6.570;2024-03-23T04:46:29;27.20;;;6.10;;
20908;SDS011;10614;53.198;6.570;2024-03-23T04:48:31;24.95;;;6.30;;
20908;SDS011;10614;53.198;6.570;2024-03-23T04:50:35;28.23;;;5.78;;
20908;SDS011;10614;53.198;6.570;2024-03-23T04:52:35;22.60;;;5.50;;
20908;SDS011;10614;53.198;6.570;2024-03-23T04:54:37;27.83;;;5.68;;
20908;SDS011;10614;53.198;6.570;2024-03-23T04:56:40;24.42;;;5.78;;
20908;SDS011;10614;53.198;6.570;2024-03-23T04:58:43;25.02;;;6.65;;
20908;SDS011;10614;53.198;6.570;2024-03-23T05:00:44;32.25;;;5.97;;
20908;SDS011;10614;53.198;6.570;2024-03-23T05:02:45;27.63;;;5.50;;
20908;SDS011;10614;53.198;6.570;2024-03-23T05:04:46;26.40;;;5.65;;
20908;SDS011;10614;53.198;6.570;2024-03-23T05:06:50;27.27;;;6.32;;
20908;SDS011;10614;53.198;6.570;2024-03-23T05:08:51;28.88;;;5.93;;
20908;SDS011;10614;53.198;6.570;2024-03-23T05:10:53;25.40;;;5.93;;
20908;SDS011;10614;53.198;6.570;2024-03-23T05:12:54;30.23;;;5.65;;
20908;SDS011;10614;53.198;6.570;2024-03-23T05:14:56;34.70;;;7.32;;
20908;SDS011;10614;53.198;6.570;2024-03-23T05:16:57;28.95;;;6.03;;
20908;SDS011;10614;53.198;6.570;2024-03-23T05:18:58;27.58;;;5.88;;
20908;SDS011;10614;53.198;6.570;2024-03-23T05:21:00;29.48;;;5.95;;
20908;SDS011;10614;53.198;6.570;2024-03-23T05:23:03;26.77;;;6.60;;
20908;SDS011;10614;53.198;6.570;2024-03-23T05:25:06;21.20;;;4.37;;
20908;SDS011;10614;53.198;6.570;2024-03-23T05:27:07;31.35;;;6.65;;
20908;SDS011;10614;53.198;6.570;2024-03-23T05:29:08;28.75;;;5.78;;
20908;SDS011;10614;53.198;6.570;2024-03-23T05:31:22;25.52;;;5.75;;
20908;SDS011;10614;53.198;6.570;2024-03-23T05:33:23;26.10;;;5.68;;
20908;SDS011;10614;53.198;6.570;2024-03-23T05:35:25;24.63;;;5.38;;
20908;SDS011;10614;53.198;6.570;2024-03-23T05:37:26;22.90;;;4.85;;
20908;SDS011;10614;53.198;6.570;2024-03-23T05:39:29;29.42;;;6.18;;
20908;SDS011;10614;53.198;6.570;2024-03-23T05:41:30;26.67;;;4.88;;
20908;SDS011;10614;53.198;6.570;2024-03-23T05:43:32;24.15;;;4.72;;
20908;SDS011;10614;53.198;6.570;2024-03-23T05:45:33;21.88;;;4.90;;
20908;SDS011;10614;53.198;6.570;2024-03-23T05:47:35;24.63;;;5.22;;
20908;SDS011;10614;53.198;6.570;2024-03-23T05:49:37;23.38;;;4.88;;
20908;SDS011;10614;53.198;6.570;2024-03-23T05:51:38;25.05;;;5.00;;
20908;SDS011;10614;53.198;6.570;2024-03-23T05:53:39;27.63;;;4.72;;
20908;SDS011;10614;53.198;6.570;2024-03-23T05:55:43;21.90;;;5.88;;
20908;SDS011;10614;53.198;6.570;2024-03-23T05:57:44;23.40;;;4.45;;
20908;SDS011;10614;53.198;6.570;2024-03-23T05:59:46;23.98;;;5.55;;
20908;SDS011;10614;53.198;6.570;2024-03-23T06:01:46;22.65;;;4.32;;
20908;SDS011;10614;53.198;6.570;2024-03-23T06:03:49;22.40;;;4.50;;
20908;SDS011;10614;53.198;6.570;2024-03-23T06:05:50;35.90;;;5.40;;
20908;SDS011;10614;53.198;6.570;2024-03-23T06:07:53;30.95;;;4.45;;
20908;SDS011;10614;53.198;6.570;2024-03-23T06:09:53;20.00;;;3.63;;
20908;SDS011;10614;53.198;6.570;2024-03-23T06:11:57;21.25;;;3.70;;
20908;SDS011;10614;53.198;6.570;2024-03-23T06:13:58;12.48;;;2.30;;
20908;SDS011;10614;53.198;6.570;2024-03-23T06:16:00;15.88;;;3.03;;
20908;SDS011;10614;53.198;6.570;2024-03-23T06:18:00;18.27;;;3.20;;
20908;SDS011;10614;53.198;6.570;2024-03-23T06:20:01;11.57;;;2.50;;
20908;SDS011;10614;53.198;6.570;2024-03-23T06:22:03;15.02;;;2.88;;
20908;SDS011;10614;53.198;6.570;2024-03-23T06:24:06;10.82;;;1.63;;
20908;SDS011;10614;53.198;6.570;2024-03-23T06:26:08;9.60;;;2.05;;
20908;SDS011;10614;53.198;6.570;2024-03-23T06:28:10;14.73;;;2.58;;
20908;SDS011;10614;53.198;6.570;2024-03-23T06:30:12;14.18;;;3.05;;
20908;SDS011;10614;53.198;6.570;2024-03-23T06:32:13;14.75;;;2.47;;
20908;SDS011;10614;53.198;6.570;2024-03-23T06:34:15;18.23;;;3.38;;
20908;SDS011;10614;53.198;6.570;2024-03-23T06:36:16;18.38;;;3.30;;
20908;SDS011;10614;53.198;6.570;2024-03-23T06:38:19;18.83;;;2.80;;
20908;SDS011;10614;53.198;6.570;2024-03-23T06:40:20;16.65;;;2.72;;
20908;SDS011;10614;53.198;6.570;2024-03-23T06:42:22;18.30;;;3.13;;
20908;SDS011;10614;53.198;6.570;2024-03-23T06:44:24;18.52;;;3.25;;
20908;SDS011;10614;53.198;6.570;2024-03-23T06:46:26;18.08;;;3.13;;
20908;SDS011;10614;53.198;6.570;2024-03-23T06:48:27;19.90;;;3.20;;
20908;SDS011;10614;53.198;6.570;2024-03-23T06:50:29;15.57;;;3.20;;
20908;SDS011;10614;53.198;6.570;2024-03-23T06:52:31;13.35;;;3.03;;
20908;SDS011;10614;53.198;6.570;2024-03-23T06:54:32;27.55;;;4.75;;
20908;SDS011;10614;53.198;6.570;2024-03-23T06:56:33;11.50;;;3.13;;
20908;SDS011;10614;53.198;6.570;2024-03-23T06:58:35;14.77;;;3.33;;
20908;SDS011;10614;53.198;6.570;2024-03-23T07:00:37;18.55;;;3.90;;
20908;SDS011;10614;53.198;6.570;2024-03-23T07:02:40;13.40;;;2.80;;
20908;SDS011;10614;53.198;6.570;2024-03-23T07:04:41;21.15;;;3.90;;
20908;SDS011;10614;53.198;6.570;2024-03-23T07:06:43;16.17;;;3.25;;
20908;SDS011;10614;53.198;6.570;2024-03-23T07:08:44;13.85;;;3.25;;
20908;SDS011;10614;53.198;6.570;2024-03-23T07:10:46;21.77;;;3.22;;
20908;SDS011;10614;53.198;6.570;2024-03-23T07:12:46;19.98;;;3.75;;
20908;SDS011;10614;53.198;6.570;2024-03-23T07:14:48;15.93;;;3.45;;
20908;SDS011;10614;53.198;6.570;2024-03-23T07:16:51;12.95;;;3.08;;
20908;SDS011;10614;53.198;6.570;2024-03-23T07:18:53;15.52;;;3.53;;
20908;SDS011;10614;53.198;6.570;2024-03-23T07:20:53;14.52;;;3.22;;
20908;SDS011;10614;53.198;6.570;2024-03-23T07:22:56;13.23;;;3.08;;
20908;SDS011;10614;53.198;6.570;2024-03-23T07:24:59;14.23;;;3.30;;
20908;SDS011;10614;53.198;6.570;2024-03-23T07:29:03;10.23;;;3.20;;
20908;SDS011;10614;53.198;6.570;2024-03-23T07:31:06;16.05;;;3.63;;
20908;SDS011;10614;53.198;6.570;2024-03-23T07:33:10;14.55;;;3.03;;
20908;SDS011;10614;53.198;6.570;2024-03-23T07:35:12;10.30;;;3.00;;
20908;SDS011;10614;53.198;6.570;2024-03-23T07:37:13;11.80;;;2.67;;
20908;SDS011;10614;53.198;6.570;2024-03-23T07:39:13;12.50;;;2.80;;
20908;SDS011;10614;53.198;6.570;2024-03-23T07:41:16;10.45;;;3.13;;
20908;SDS011;10614;53.198;6.570;2024-03-23T07:43:19;12.50;;;2.80;;
20908;SDS011;10614;53.198;6.570;2024-03-23T07:45:20;9.95;;;2.70;;
20908;SDS011;10614;53.198;6.570;2024-03-23T07:47:22;9.88;;;2.72;;
20908;SDS011;10614;53.198;6.570;2024-03-23T07:49:25;11.07;;;2.22;;
20908;SDS011;10614;53.198;6.570;2024-03-23T07:51:27;11.43;;;2.80;;
20908;SDS011;10614;53.198;6.570;2024-03-23T07:53:27;9.18;;;2.17;;
20908;SDS011;10614;53.198;6.570;2024-03-23T07:55:30;10.02;;;2.40;;
20908;SDS011;10614;53.198;6.570;2024-03-23T07:57:31;10.68;;;2.92;;
20908;SDS011;10614;53.198;6.570;2024-03-23T07:59:33;8.55;;;2.42;;
20908;SDS011;10614;53.198;6.570;2024-03-23T08:01:34;10.13;;;2.20;;
20908;SDS011;10614;53.198;6.570;2024-03-23T08:03:36;10.30;;;2.58;;
20908;SDS011;10614;53.198;6.570;2024-03-23T08:05:38;8.98;;;2.72;;
20908;SDS011;10614;53.198;6.570;2024-03-23T08:07:40;13.77;;;3.05;;
20908;SDS011;10614;53.198;6.570;2024-03-23T08:09:44;12.73;;;2.35;;
20908;SDS011;10614;53.198;6.570;2024-03-23T08:11:46;13.55;;;2.47;;
20908;SDS011;10614;53.198;6.570;2024-03-23T08:13:47;6.30;;;2.25;;
20908;SDS011;10614;53.198;6.570;2024-03-23T08:15:49;14.55;;;2.67;;
20908;SDS011;10614;53.198;6.570;2024-03-23T08:17:50;10.63;;;2.63;;
20908;SDS011;10614;53.198;6.570;2024-03-23T08:19:51;11.18;;;2.65;;
20908;SDS011;10614;53.198;6.570;2024-03-23T08:21:54;13.07;;;3.00;;
20908;SDS011;10614;53.198;6.570;2024-03-23T08:23:58;11.18;;;2.85;;
20908;SDS011;10614;53.198;6.570;2024-03-23T08:25:59;9.00;;;2.75;;
20908;SDS011;10614;53.198;6.570;2024-03-23T08:28:04;13.77;;;2.78;;
20908;SDS011;10614;53.198;6.570;2024-03-23T08:30:05;10.32;;;2.63;;
20908;SDS011;10614;53.198;6.570;2024-03-23T08:32:08;9.02;;;2.80;;
20908;SDS011;10614;53.198;6.570;2024-03-23T08:34:09;14.38;;;2.97;;
20908;SDS011;10614;53.198;6.570;2024-03-23T08:36:10;15.40;;;3.20;;
20908;SDS011;10614;53.198;6.570;2024-03-23T08:38:15;14.68;;;3.25;;
20908;SDS011;10614;53.198;6.570;2024-03-23T08:40:17;14.18;;;3.80;;
20908;SDS011;10614;53.198;6.570;2024-03-23T08:42:19;11.48;;;3.58;;
20908;SDS011;10614;53.198;6.570;2024-03-23T08:44:20;16.58;;;3.83;;
20908;SDS011;10614;53.198;6.570;2024-03-23T08:46:22;11.45;;;3.40;;
20908;SDS011;10614;53.198;6.570;2024-03-23T08:48:23;14.25;;;4.22;;
20908;SDS011;10614;53.198;6.570;2024-03-23T08:50:25;15.73;;;4.05;;
20908;SDS011;10614;53.198;6.570;2024-03-23T08:52:25;18.30;;;4.20;;
20908;SDS011;10614;53.198;6.570;2024-03-23T08:54:30;17.33;;;4.20;;
20908;SDS011;10614;53.198;6.570;2024-03-23T08:56:31;14.23;;;3.80;;
20908;SDS011;10614;53.198;6.570;2024-03-23T08:58:33;17.45;;;4.57;;
20908;SDS011;10614;53.198;6.570;2024-03-23T09:00:35;15.50;;;4.20;;
20908;SDS011;10614;53.198;6.570;2024-03-23T09:02:37;19.17;;;4.65;;
20908;SDS011;10614;53.198;6.570;2024-03-23T09:04:38;16.45;;;4.25;;
20908;SDS011;10614;53.198;6.570;2024-03-23T09:06:42;17.50;;;5.05;;
20908;SDS011;10614;53.198;6.570;2024-03-23T09:08:43;13.27;;;3.65;;
20908;SDS011;10614;53.198;6.570;2024-03-23T09:10:47;16.42;;;4.28;;
20908;SDS011;10614;53.198;6.570;2024-03-23T09:12:48;14.02;;;4.13;;
20908;SDS011;10614;53.198;6.570;2024-03-23T09:14:51;15.30;;;4.38;;
20908;SDS011;10614;53.198;6.570;2024-03-23T09:16:53;17.65;;;4.07;;
20908;SDS011;10614;53.198;6.570;2024-03-23T09:18:54;12.23;;;3.38;;
20908;SDS011;10614;53.198;6.570;2024-03-23T09:20:56;19.70;;;3.85;;
20908;SDS011;10614;53.198;6.570;2024-03-23T09:22:57;18.02;;;3.47;;
20908;SDS011;10614;53.198;6.570;2024-03-23T09:25:02;15.40;;;3.05;;
20908;SDS011;10614;53.198;6.570;2024-03-23T09:27:09;20.05;;;4.82;;
20908;SDS011;10614;53.198;6.570;2024-03-23T09:29:14;15.48;;;3.17;;
20908;SDS011;10614;53.198;6.570;2024-03-23T09:31:14;11.70;;;3.30;;
20908;SDS011;10614;53.198;6.570;2024-03-23T09:33:16;14.77;;;2.97;;
20908;SDS011;10614;53.198;6.570;2024-03-23T09:35:18;16.23;;;2.92;;
20908;SDS011;10614;53.198;6.570;2024-03-23T09:37:21;15.43;;;2.97;;
20908;SDS011;10614;53.198;6.570;2024-03-23T09:39:22;10.40;;;2.47;;
20908;SDS011;10614;53.198;6.570;2024-03-23T09:41:26;12.70;;;3.03;;
20908;SDS011;10614;53.198;6.570;2024-03-23T09:43:28;11.65;;;2.10;;
20908;SDS011;10614;53.198;6.570;2024-03-23T09:45:30;10.00;;;2.00;;
20908;SDS011;10614;53.198;6.570;2024-03-23T09:47:34;14.75;;;2.50;;
20908;SDS011;10614;53.198;6.570;2024-03-23T09:49:37;12.00;;;2.60;;
20908;SDS011;10614;53.198;6.570;2024-03-23T09:51:38;15.70;;;2.78;;
20908;SDS011;10614;53.198;6.570;2024-03-23T09:53:40;18.73;;;3.22;;
20908;SDS011;10614;53.198;6.570;2024-03-23T09:55:42;18.83;;;3.40;;
20908;SDS011;10614;53.198;6.570;2024-03-23T09:57:45;16.65;;;3.08;;
20908;SDS011;10614;53.198;6.570;2024-03-23T09:59:47;16.55;;;3.70;;
20908;SDS011;10614;53.198;6.570;2024-03-23T10:01:50;16.87;;;3.40;;
20908;SDS011;10614;53.198;6.570;2024-03-23T10:03:51;13.60;;;3.60;;
20908;SDS011;10614;53.198;6.570;2024-03-23T10:06:00;7.22;;;2.38;;
20908;SDS011;10614;53.198;6.570;2024-03-23T10:08:02;7.68;;;1.55;;
20908;SDS011;10614;53.198;6.570;2024-03-23T10:10:19;8.85;;;1.90;;
20908;SDS011;10614;53.198;6.570;2024-03-23T10:12:22;6.75;;;1.52;;
20908;SDS011;10614;53.198;6.570;2024-03-23T10:14:28;11.43;;;2.08;;
20908;SDS011;10614;53.198;6.570;2024-03-23T10:16:30;17.00;;;2.63;;
20908;SDS011;10614;53.198;6.570;2024-03-23T10:18:32;11.52;;;2.08;;
20908;SDS011;10614;53.198;6.570;2024-03-23T10:20:38;15.15;;;2.50;;
20908;SDS011;10614;53.198;6.570;2024-03-23T10:22:38;16.38;;;2.72;;
20908;SDS011;10614;53.198;6.570;2024-03-23T10:24:41;14.70;;;3.72;;
20908;SDS011;10614;53.198;6.570;2024-03-23T10:26:42;16.02;;;3.33;;
20908;SDS011;10614;53.198;6.570;2024-03-23T10:28:56;20.35;;;2.92;;
20908;SDS011;10614;53.198;6.570;2024-03-23T10:31:00;16.30;;;2.85;;
20908;SDS011;10614;53.198;6.570;2024-03-23T10:33:14;19.45;;;3.05;;
20908;SDS011;10614;53.198;6.570;2024-03-23T10:35:17;20.73;;;3.38;;
20908;SDS011;10614;53.198;6.570;2024-03-23T10:37:22;11.65;;;3.05;;
20908;SDS011;10614;53.198;6.570;2024-03-23T10:39:22;16.48;;;3.58;;
20908;SDS011;10614;53.198;6.570;2024-03-23T10:41:26;10.25;;;2.40;;
20908;SDS011;10614;53.198;6.570;2024-03-23T10:43:28;11.73;;;2.20;;
20908;SDS011;10614;53.198;6.570;2024-03-23T10:45:32;10.52;;;2.10;;
20908;SDS011;10614;53.198;6.570;2024-03-23T10:47:34;14.13;;;2.00;;
20908;SDS011;10614;53.198;6.570;2024-03-23T10:49:38;10.48;;;1.80;;
20908;SDS011;10614;53.198;6.570;2024-03-23T10:51:40;11.60;;;1.85;;
20908;SDS011;10614;53.198;6.570;2024-03-23T10:53:42;11.38;;;2.00;;
20908;SDS011;10614;53.198;6.570;2024-03-23T10:55:44;10.05;;;2.10;;
20908;SDS011;10614;53.198;6.570;2024-03-23T10:57:48;11.35;;;1.85;;
20908;SDS011;10614;53.198;6.570;2024-03-23T10:59:52;11.98;;;1.83;;
20908;SDS011;10614;53.198;6.570;2024-03-23T11:01:55;14.70;;;2.17;;
20908;SDS011;10614;53.198;6.570;2024-03-23T11:03:57;17.23;;;2.70;;
20908;SDS011;10614;53.198;6.570;2024-03-23T11:06:00;12.90;;;2.65;;
20908;SDS011;10614;53.198;6.570;2024-03-23T11:08:03;11.85;;;2.55;;
20908;SDS011;10614;53.198;6.570;2024-03-23T11:10:06;12.30;;;2.08;;
20908;SDS011;10614;53.198;6.570;2024-03-23T11:12:27;13.13;;;2.42;;
20908;SDS011;10614;53.198;6.570;2024-03-23T11:14:31;15.38;;;2.72;;
20908;SDS011;10614;53.198;6.570;2024-03-23T11:16:34;13.80;;;2.55;;
20908;SDS011;10614;53.198;6.570;2024-03-23T11:18:36;14.80;;;2.95;;
20908;SDS011;10614;53.198;6.570;2024-03-23T11:20:38;15.38;;;2.30;;
20908;SDS011;10614;53.198;6.570;2024-03-23T11:22:41;12.77;;;2.70;;
20908;SDS011;10614;53.198;6.570;2024-03-23T11:24:49;10.80;;;2.13;;
20908;SDS011;10614;53.198;6.570;2024-03-23T11:26:50;14.05;;;2.80;;
20908;SDS011;10614;53.198;6.570;2024-03-23T11:28:55;19.17;;;2.90;;
20908;SDS011;10614;53.198;6.570;2024-03-23T11:31:09;11.88;;;2.70;;
20908;SDS011;10614;53.198;6.570;2024-03-23T11:33:12;14.25;;;2.83;;
20908;SDS011;10614;53.198;6.570;2024-03-23T11:35:28;10.52;;;3.28;;
20908;SDS011;10614;53.198;6.570;2024-03-23T11:37:33;16.33;;;3.50;;
20908;SDS011;10614;53.198;6.570;2024-03-23T11:39:35;13.38;;;3.42;;
20908;SDS011;10614;53.198;6.570;2024-03-23T11:41:44;11.73;;;3.10;;
20908;SDS011;10614;53.198;6.570;2024-03-23T11:43:46;14.57;;;3.15;;
20908;SDS011;10614;53.198;6.570;2024-03-23T11:45:48;16.60;;;3.40;;
20908;SDS011;10614;53.198;6.570;2024-03-23T11:48:05;13.33;;;3.73;;
20908;SDS011;10614;53.198;6.570;2024-03-23T11:50:08;19.00;;;3.50;;
20908;SDS011;10614;53.198;6.570;2024-03-23T11:52:09;8.90;;;2.88;;
20908;SDS011;10614;53.198;6.570;2024-03-23T11:54:10;11.02;;;2.72;;
20908;SDS011;10614;53.198;6.570;2024-03-23T11:56:14;10.52;;;2.60;;
20908;SDS011;10614;53.198;6.570;2024-03-23T11:58:15;13.55;;;2.80;;
20908;SDS011;10614;53.198;6.570;2024-03-23T12:00:20;19.00;;;3.75;;
20908;SDS011;10614;53.198;6.570;2024-03-23T12:02:23;13.85;;;2.88;;
20908;SDS011;10614;53.198;6.570;2024-03-23T12:04:26;13.65;;;2.63;;
20908;SDS011;10614;53.198;6.570;2024-03-23T12:06:27;10.80;;;2.72;;
20908;SDS011;10614;53.198;6.570;2024-03-23T12:08:29;12.55;;;2.25;;
20908;SDS011;10614;53.198;6.570;2024-03-23T12:10:31;13.70;;;2.40;;
20908;SDS011;10614;53.198;6.570;2024-03-23T12:12:35;10.40;;;2.95;;
20908;SDS011;10614;53.198;6.570;2024-03-23T12:14:39;15.30;;;2.63;;
20908;SDS011;10614;53.198;6.570;2024-03-23T12:16:40;13.90;;;2.88;;
20908;SDS011;10614;53.198;6.570;2024-03-23T12:18:43;8.43;;;2.15;;
20908;SDS011;10614;53.198;6.570;2024-03-23T12:20:45;10.25;;;1.90;;
20908;SDS011;10614;53.198;6.570;2024-03-23T12:22:48;7.65;;;1.73;;
20908;SDS011;10614;53.198;6.570;2024-03-23T12:24:49;12.15;;;2.13;;
20908;SDS011;10614;53.198;6.570;2024-03-23T12:26:51;15.38;;;2.67;;
20908;SDS011;10614;53.198;6.570;2024-03-23T12:29:07;11.63;;;2.10;;
20908;SDS011;10614;53.198;6.570;2024-03-23T12:31:09;8.55;;;2.03;;
20908;SDS011;10614;53.198;6.570;2024-03-23T12:33:11;9.27;;;1.80;;
20908;SDS011;10614;53.198;6.570;2024-03-23T12:35:13;7.20;;;1.75;;
20908;SDS011;10614;53.198;6.570;2024-03-23T12:37:16;11.00;;;2.25;;
20908;SDS011;10614;53.198;6.570;2024-03-23T12:39:20;13.93;;;2.30;;
20908;SDS011;10614;53.198;6.570;2024-03-23T12:41:24;8.00;;;2.40;;
20908;SDS011;10614;53.198;6.570;2024-03-23T12:43:26;10.40;;;2.35;;
20908;SDS011;10614;53.198;6.570;2024-03-23T12:45:30;10.27;;;2.22;;
20908;SDS011;10614;53.198;6.570;2024-03-23T12:47:32;12.98;;;2.53;;
20908;SDS011;10614;53.198;6.570;2024-03-23T12:49:33;11.27;;;2.65;;
20908;SDS011;10614;53.198;6.570;2024-03-23T12:51:37;8.23;;;2.13;;
20908;SDS011;10614;53.198;6.570;2024-03-23T12:54:21;8.07;;;1.95;;
20908;SDS011;10614;53.198;6.570;2024-03-23T12:56:24;13.30;;;1.63;;
20908;SDS011;10614;53.198;6.570;2024-03-23T12:58:29;13.18;;;1.90;;
20908;SDS011;10614;53.198;6.570;2024-03-23T13:00:32;9.43;;;2.15;;
20908;SDS011;10614;53.198;6.570;2024-03-23T13:02:33;12.38;;;2.10;;
20908;SDS011;10614;53.198;6.570;2024-03-23T13:04:35;8.35;;;1.77;;
20908;SDS011;10614;53.198;6.570;2024-03-23T13:06:36;11.25;;;2.35;;